Mendocino, CA

5:34 PM PDT on September 01, 2015 (GMT -0700)
APRSWXNET | | Change Station
CLOSE
Current Station
Personal Weather Station
Location: Little River, CA
Elevation: 492 ft
Nearby Weather Stations

Elev 492 ft 39.29 °N, 123.77 °W | Updated 19 minutes ago

Clear
Clear
67 °F
Feels Like 67 °F
N
2
Wind Variable Wind from ENE
Gusts 10.0 mph

Today
High -- | Low -- °F
--% Chance of Precip.
Yesterday
High -- | Low -- °F
Precip. -- in
6:43 AM 7:46 PM
Waning Gibbous, 85% visible
Pressure 29.77 in
Visibility 10.0 miles
Clouds Clear
Dew Point 58 °F
Humidity 74%
Rainfall in
Snow Depth Not available.
UV 3 out of 12
Pollen 8.30 out of 12
Air Quality Not available.
Flu Activity Not available.
METAR KUKI 012356Z AUTO 26008KT 10SM CLR 33/06 A2979 RMK AO2 SLP081 T03280061 10344 20250 56008
Pressure 29.77 in
Visibility 10.0 miles
Clouds Clear
Dew Point 58 °F
Humidity 74%
Rainfall in
Snow Depth Not available.
UV 3 out of 12
Pollen 8.30 out of 12
Air Quality Not available.
Flu Activity Not available.
METAR KUKI 012356Z AUTO 26008KT 10SM CLR 33/06 A2979 RMK AO2 SLP081 T03280061 10344 20250 56008

10-Day Weather Forecast

×

Almanac

Astronomy

Sep. 01, 2015 Rise Set
Actual Time
Civil Twilight
Nautical Twilight
Astronomical Twilight
Moon
Length of Visible Light
Length of Day
Tomorrow will be .
, % of the Moon is Illuminated

Today's Extremes

State Highs State Lows

Community

WunderPhotos

Upload Photos

1,851,657 photos uploaded!

WunderBlogs® & News

Nearby

Air Quality

  Air Quality AQ Index Pollutant
Not available.

Snow Depth

Station Depth Elevation

Earthquake Activity

City Distance Mag. Time & Date
Minimum magnitude displayed is 2.5.

Coastal Water Temperatures

Place Temperature

Stations

Nearby Weather Stations

Station Location Temp. Windchill Dew Point Humidity Wind Precip. Elev Updated Type